Time;durP1;ratioP1;P1;durP2;ratioP2;P2;SDS_P1;SDS_P2;PMS_P1;PMS_P2;Temp;Humidity;BMP_temperature;BMP_pressure;BME280_temperature;BME280_humidity;BME280_pressure;Samples;Min_cycle;Max_cycle;Signal;HPM_P1;HPM_P2
2022/11/27 00:00:01;;;;;;;4.57;1.85;;;17.40;90.70;;;;;;6181678;23;45213;-69
2022/11/27 00:02:27;;;;;;;4.13;2.00;;;17.40;90.90;;;;;;6183094;23;45280;-69
2022/11/27 00:04:54;;;;;;;3.75;1.98;;;17.30;90.50;;;;;;6181180;23;47960;-69
2022/11/27 00:07:24;;;;;;;6.82;2.22;;;17.30;90.00;;;;;;6182067;23;45294;-69
2022/11/27 00:09:50;;;;;;;4.97;2.17;;;17.30;90.60;;;;;;6182024;23;45284;-69
2022/11/27 00:12:17;;;;;;;3.30;2.10;;;17.40;90.60;;;;;;6182026;23;45331;-69
2022/11/27 00:14:44;;;;;;;3.67;2.10;;;17.40;90.70;;;;;;6182237;23;46255;-70
2022/11/27 00:17:10;;;;;;;4.00;2.08;;;17.30;90.00;;;;;;6182186;23;45365;-70
2022/11/27 00:19:38;;;;;;;2.67;1.77;;;17.30;90.90;;;;;;6181905;23;45281;-69
2022/11/27 00:22:04;;;;;;;4.40;1.83;;;17.30;90.20;;;;;;6183047;23;45400;-70
2022/11/27 00:24:32;;;;;;;3.35;1.77;;;17.30;90.30;;;;;;6181997;23;47375;-70
2022/11/27 00:26:59;;;;;;;3.25;1.70;;;17.30;90.20;;;;;;6182866;23;45268;-69
2022/11/27 00:29:28;;;;;;;6.30;2.15;;;17.30;90.10;;;;;;6180708;23;45402;-69
2022/11/27 00:31:55;;;;;;;5.07;1.90;;;17.30;90.70;;;;;;6183093;23;45233;-69
2022/11/27 00:34:22;;;;;;;4.20;1.88;;;17.30;90.50;;;;;;6182264;23;45460;-69
2022/11/27 00:36:49;;;;;;;5.63;2.13;;;17.40;90.60;;;;;;6182207;23;45292;-69
2022/11/27 00:39:16;;;;;;;4.13;1.92;;;17.30;90.80;;;;;;6181848;23;45433;-69
2022/11/27 00:41:44;;;;;;;4.18;1.92;;;17.30;90.70;;;;;;6182236;23;45623;-69
2022/11/27 00:44:12;;;;;;;3.63;1.83;;;17.30;90.70;;;;;;6182775;23;46983;-69
2022/11/27 00:46:40;;;;;;;3.97;1.95;;;17.40;90.90;;;;;;6181665;23;45448;-70
2022/11/27 00:49:07;;;;;;;4.05;1.92;;;17.40;91.00;;;;;;6182231;23;45189;-70
2022/11/27 00:51:35;;;;;;;3.75;1.95;;;17.30;91.00;;;;;;6183035;23;45273;-69
2022/11/27 00:54:01;;;;;;;4.75;1.90;;;17.30;90.90;;;;;;6181671;23;45521;-69
2022/11/27 00:56:30;;;;;;;4.47;1.48;;;17.40;90.80;;;;;;6182293;23;45456;-70
2022/11/27 00:58:59;;;;;;;5.43;1.70;;;17.30;90.60;;;;;;6182181;23;45169;-70
2022/11/27 01:01:27;;;;;;;2.72;1.63;;;17.30;90.40;;;;;;6181775;23;45360;-69
2022/11/27 01:03:55;;;;;;;4.68;1.92;;;17.30;90.30;;;;;;6180152;23;47904;-70
2022/11/27 01:06:22;;;;;;;3.80;1.58;;;17.30;90.00;;;;;;6181601;23;45170;-69
2022/11/27 01:08:50;;;;;;;2.22;1.52;;;17.30;90.00;;;;;;6182932;23;45237;-70
2022/11/27 01:11:19;;;;;;;4.07;1.83;;;17.30;90.00;;;;;;6180927;23;45681;-69
2022/11/27 01:13:46;;;;;;;4.38;1.70;;;17.30;90.20;;;;;;6182391;23;47968;-70
2022/11/27 01:16:16;;;;;;;3.80;1.92;;;17.30;89.50;;;;;;6182088;23;45304;-69
2022/11/27 01:18:45;;;;;;;3.10;1.52;;;17.30;89.80;;;;;;6182685;23;45328;-69
2022/11/27 01:21:13;;;;;;;3.53;1.67;;;17.30;90.00;;;;;;6180950;23;45379;-70
2022/11/27 01:23:39;;;;;;;3.35;1.50;;;17.30;89.60;;;;;;6182233;23;45293;-69
2022/11/27 01:26:08;;;;;;;5.05;1.90;;;17.30;90.20;;;;;;6182139;23;45357;-69
2022/11/27 01:28:37;;;;;;;3.58;1.58;;;17.30;90.00;;;;;;6181593;23;45320;-69
2022/11/27 01:31:05;;;;;;;4.88;1.60;;;17.30;90.20;;;;;;6181529;23;45318;-70
2022/11/27 01:33:34;;;;;;;5.63;1.70;;;17.30;90.40;;;;;;6181312;23;47184;-70
2022/11/27 01:36:02;;;;;;;3.38;1.55;;;17.30;90.10;;;;;;6181991;23;45377;-70
2022/11/27 01:38:30;;;;;;;3.92;1.40;;;17.30;90.40;;;;;;6181957;23;45337;-70
2022/11/27 01:40:59;;;;;;;3.70;1.65;;;17.30;90.80;;;;;;6180821;23;45325;-69
2022/11/27 01:43:45;;;;;;;2.75;1.58;;;17.30;90.90;;;;;;6181887;23;46381;-71
2022/11/27 01:46:28;;;;;;;6.30;1.50;;;17.30;90.70;;;;;;6181270;23;45289;-70
2022/11/27 01:49:00;;;;;;;3.47;1.58;;;17.30;90.50;;;;;;6182331;23;45257;-70
2022/11/27 01:51:27;;;;;;;4.75;1.92;;;17.30;90.80;;;;;;6180941;23;45448;-69
2022/11/27 01:53:54;;;;;;;3.17;1.40;;;17.30;90.50;;;;;;6181780;23;45360;-69
2022/11/27 01:56:23;;;;;;;2.92;1.50;;;17.30;90.40;;;;;;6181346;23;45260;-69
2022/11/27 01:58:50;;;;;;;2.05;1.23;;;17.30;90.30;;;;;;6181819;23;45376;-69
2022/11/27 02:01:17;;;;;;;4.13;1.25;;;17.30;90.30;;;;;;6182515;23;45196;-69
2022/11/27 02:03:44;;;;;;;1.75;1.20;;;17.40;90.10;;;;;;6182314;23;46426;-69
2022/11/27 02:06:14;;;;;;;3.80;1.50;;;17.30;90.20;;;;;;6180989;23;45466;-70
2022/11/27 02:08:41;;;;;;;2.63;1.30;;;17.30;90.00;;;;;;6181952;23;45213;-69
2022/11/27 02:11:13;;;;;;;3.78;1.50;;;17.40;89.80;;;;;;6182856;22;45553;-70
2022/11/27 02:13:46;;;;;;;3.35;1.73;;;17.30;90.20;;;;;;6182121;23;46352;-70
2022/11/27 02:16:21;;;;;;;4.78;1.38;;;17.30;89.00;;;;;;6182390;23;45291;-70
2022/11/27 02:18:56;;;;;;;3.35;1.40;;;17.30;89.60;;;;;;6183846;23;45133;-70
2022/11/27 02:21:32;;;;;;;1.88;1.23;;;17.30;89.30;;;;;;6182162;23;45563;-69
2022/11/27 02:24:28;;;;;;;3.28;1.50;;;17.30;88.40;;;;;;6183441;23;45384;-69
2022/11/27 02:27:17;;;;;;;2.97;1.20;;;17.30;88.90;;;;;;6182671;23;45320;-69
2022/11/27 02:29:49;;;;;;;2.80;1.20;;;17.30;90.30;;;;;;6183122;23;45415;-70
2022/11/27 02:32:21;;;;;;;1.85;0.90;;;17.30;90.50;;;;;;6183223;23;45277;-69
2022/11/27 02:34:54;;;;;;;4.03;1.20;;;17.30;90.40;;;;;;6182935;23;47012;-70
2022/11/27 02:37:27;;;;;;;3.03;1.33;;;17.30;90.70;;;;;;6182317;23;45529;-69
2022/11/27 02:40:01;;;;;;;1.55;1.10;;;17.30;90.60;;;;;;6182886;23;45390;-70
2022/11/27 02:42:31;;;;;;;2.63;1.42;;;17.30;90.70;;;;;;6183578;23;45247;-70
2022/11/27 02:45:03;;;;;;;2.33;1.20;;;17.30;90.60;;;;;;6182637;23;46248;-70
2022/11/27 02:47:30;;;;;;;2.88;1.10;;;17.30;90.80;;;;;;6183271;23;45277;-69
2022/11/27 02:49:58;;;;;;;1.80;1.17;;;17.30;90.80;;;;;;6181853;23;45280;-69
2022/11/27 02:52:27;;;;;;;2.60;1.30;;;17.30;90.90;;;;;;6183555;23;45179;-69
2022/11/27 02:54:57;;;;;;;2.75;1.15;;;17.30;90.50;;;;;;6182357;23;45400;-70
2022/11/27 02:57:27;;;;;;;2.63;1.13;;;17.30;90.50;;;;;;6183115;23;45230;-70
2022/11/27 02:59:56;;;;;;;4.22;1.27;;;17.30;90.40;;;;;;6183011;23;45311;-69
2022/11/27 03:02:29;;;;;;;3.25;1.13;;;17.30;90.70;;;;;;6182587;23;45402;-70
2022/11/27 03:04:58;;;;;;;2.17;1.08;;;17.30;90.40;;;;;;6181693;23;45457;-70
2022/11/27 03:07:32;;;;;;;2.55;1.30;;;17.30;90.20;;;;;;6181261;23;45384;-69
2022/11/27 03:10:06;;;;;;;3.13;1.40;;;17.30;90.20;;;;;;6182475;22;45292;-70
2022/11/27 03:12:33;;;;;;;1.75;1.00;;;17.30;90.20;;;;;;6182621;23;45348;-70
2022/11/27 03:15:00;;;;;;;2.88;1.20;;;17.30;89.80;;;;;;6183161;23;46406;-69
2022/11/27 03:17:41;;;;;;;2.55;1.23;;;17.30;89.30;;;;;;6183176;23;45273;-70
2022/11/27 03:20:15;;;;;;;4.13;1.60;;;17.30;90.20;;;;;;6182129;23;45395;-69
2022/11/27 03:22:42;;;;;;;3.08;1.58;;;17.30;89.20;;;;;;6183385;23;45232;-69
2022/11/27 03:25:09;;;;;;;2.85;1.20;;;17.30;90.10;;;;;;6182476;23;48093;-70
2022/11/27 03:27:40;;;;;;;2.13;1.10;;;17.30;89.80;;;;;;6183173;23;45213;-69
2022/11/27 03:30:12;;;;;;;2.00;1.23;;;17.30;90.50;;;;;;6181739;23;45325;-70
2022/11/27 03:32:40;;;;;;;1.70;0.93;;;17.30;90.40;;;;;;6183508;23;45221;-70
2022/11/27 03:35:10;;;;;;;4.18;1.10;;;17.30;90.50;;;;;;6182825;23;45323;-69
2022/11/27 03:37:37;;;;;;;1.20;1.02;;;17.30;90.90;;;;;;6182109;23;45485;-69
2022/11/27 03:40:08;;;;;;;2.13;1.23;;;17.30;91.00;;;;;;6182502;23;45423;-69
2022/11/27 03:42:48;;;;;;;2.75;1.30;;;17.30;91.00;;;;;;6182604;23;45364;-69
2022/11/27 03:45:21;;;;;;;3.42;1.42;;;17.30;90.80;;;;;;6182973;23;45429;-69
2022/11/27 03:48:00;;;;;;;3.22;1.40;;;17.30;90.80;;;;;;6182478;23;45298;-69
2022/11/27 03:50:38;;;;;;;2.10;1.20;;;17.30;90.70;;;;;;6182439;23;45367;-69
2022/11/27 03:53:12;;;;;;;3.53;1.55;;;17.30;90.90;;;;;;6182902;23;45421;-70
2022/11/27 03:55:49;;;;;;;3.75;1.58;;;17.30;90.90;;;;;;6182560;23;46266;-70
2022/11/27 03:58:20;;;;;;;2.25;1.33;;;17.30;90.60;;;;;;6182885;23;45204;-70
2022/11/27 04:00:50;;;;;;;3.53;1.58;;;17.30;90.70;;;;;;6181271;23;45330;-70
2022/11/27 04:03:23;;;;;;;3.28;1.63;;;17.30;90.50;;;;;;6183182;23;45273;-69
2022/11/27 04:05:50;;;;;;;4.25;1.67;;;17.30;90.30;;;;;;6179802;23;45480;-70
2022/11/27 04:08:17;;;;;;;5.20;1.80;;;17.30;90.40;;;;;;6182463;23;46172;-70
2022/11/27 04:10:44;;;;;;;3.25;1.50;;;17.30;90.20;;;;;;6179613;23;45468;-70
2022/11/27 04:13:11;;;;;;;2.47;1.63;;;17.30;90.20;;;;;;6181530;23;45496;-69
2022/11/27 04:15:37;;;;;;;2.97;1.73;;;17.30;90.30;;;;;;6182471;23;46564;-69
2022/11/27 04:18:04;;;;;;;3.65;1.98;;;17.30;90.20;;;;;;6181993;23;45432;-70
2022/11/27 04:20:33;;;;;;;3.63;1.90;;;17.30;89.50;;;;;;6182106;23;45311;-69
2022/11/27 04:23:00;;;;;;;3.15;1.77;;;17.30;90.20;;;;;;6181834;23;45306;-70
2022/11/27 04:25:26;;;;;;;2.97;1.98;;;17.30;89.30;;;;;;6182524;23;45319;-70
2022/11/27 04:27:53;;;;;;;3.08;2.17;;;17.30;89.40;;;;;;6182963;23;45200;-70
2022/11/27 04:30:21;;;;;;;2.58;1.90;;;17.30;90.30;;;;;;6181893;23;45309;-69
2022/11/27 04:32:47;;;;;;;4.68;2.05;;;17.30;90.40;;;;;;6182862;23;45217;-69
2022/11/27 04:35:14;;;;;;;3.05;2.00;;;17.30;90.40;;;;;;6181600;23;45285;-69
2022/11/27 04:37:42;;;;;;;3.95;2.03;;;17.30;90.40;;;;;;6182675;23;45274;-70
2022/11/27 04:40:10;;;;;;;4.45;2.28;;;17.40;90.60;;;;;;6181798;23;45506;-69
2022/11/27 04:42:37;;;;;;;3.45;2.17;;;17.40;90.70;;;;;;6182702;23;45313;-69
2022/11/27 04:45:04;;;;;;;4.20;2.30;;;17.30;90.50;;;;;;6182818;23;46271;-69
2022/11/27 04:47:31;;;;;;;3.45;1.95;;;17.30;90.70;;;;;;6181816;23;45787;-70
2022/11/27 04:49:58;;;;;;;4.18;2.05;;;17.30;90.80;;;;;;6182232;23;45200;-69
2022/11/27 04:52:25;;;;;;;3.78;2.00;;;17.30;90.60;;;;;;6182445;23;45248;-69
2022/11/27 04:54:53;;;;;;;3.17;2.22;;;17.30;90.40;;;;;;6181172;23;47063;-69
2022/11/27 04:57:20;;;;;;;3.55;2.05;;;17.30;90.60;;;;;;6180959;23;45324;-70
2022/11/27 04:59:46;;;;;;;4.22;2.08;;;17.30;90.80;;;;;;6181845;23;45280;-69
2022/11/27 05:02:13;;;;;;;4.28;2.60;;;17.30;90.20;;;;;;6182609;23;45422;-70
2022/11/27 05:04:40;;;;;;;4.65;2.40;;;17.30;90.20;;;;;;6179037;23;47326;-70
2022/11/27 05:07:07;;;;;;;4.47;2.50;;;17.30;90.30;;;;;;6181898;23;45364;-69
2022/11/27 05:09:33;;;;;;;4.30;2.45;;;17.30;90.00;;;;;;6181530;23;45381;-69
2022/11/27 05:12:01;;;;;;;2.70;2.17;;;17.30;90.20;;;;;;6182660;23;45451;-69
2022/11/27 05:14:29;;;;;;;3.50;2.50;;;17.30;89.90;;;;;;6182124;23;46426;-70
2022/11/27 05:16:58;;;;;;;4.85;2.30;;;17.30;89.90;;;;;;6181958;23;45367;-70
2022/11/27 05:19:27;;;;;;;4.60;2.40;;;17.30;90.00;;;;;;6182443;23;45316;-69
2022/11/27 05:21:54;;;;;;;3.42;2.70;;;17.30;89.30;;;;;;6181105;23;45217;-69
2022/11/27 05:24:22;;;;;;;4.55;2.83;;;17.30;89.50;;;;;;6182324;23;46747;-69
2022/11/27 05:26:49;;;;;;;4.05;2.38;;;17.30;88.60;;;;;;6181444;23;45366;-69
2022/11/27 05:29:18;;;;;;;4.07;2.15;;;17.30;90.00;;;;;;6182373;23;45311;-69
2022/11/27 05:31:45;;;;;;;4.38;2.33;;;17.30;90.20;;;;;;6181815;23;45448;-69
2022/11/27 05:34:12;;;;;;;3.88;2.40;;;17.30;90.20;;;;;;6182068;23;45308;-69
2022/11/27 05:36:39;;;;;;;4.90;2.65;;;17.30;90.20;;;;;;6183399;23;45222;-69
2022/11/27 05:39:07;;;;;;;4.68;2.20;;;17.30;90.70;;;;;;6183105;23;45479;-69
2022/11/27 05:41:34;;;;;;;4.95;2.75;;;17.30;91.20;;;;;;6182763;23;45233;-69
2022/11/27 05:44:01;;;;;;;4.68;2.40;;;17.30;91.30;;;;;;6183105;23;47356;-69
2022/11/27 05:46:29;;;;;;;5.72;2.90;;;17.30;91.10;;;;;;6183732;23;45460;-69
2022/11/27 05:48:56;;;;;;;3.95;2.58;;;17.30;91.00;;;;;;6183784;23;45238;-69
2022/11/27 05:51:23;;;;;;;6.55;2.72;;;17.20;90.60;;;;;;6182645;23;45387;-69
2022/11/27 05:53:50;;;;;;;5.70;2.97;;;17.20;90.10;;;;;;6183194;23;46428;-69
2022/11/27 05:56:18;;;;;;;3.88;2.70;;;17.20;90.00;;;;;;6182617;23;45336;-69
2022/11/27 05:58:47;;;;;;;5.80;2.42;;;17.20;89.20;;;;;;6183526;23;45207;-69
2022/11/27 06:01:15;;;;;;;4.82;2.75;;;17.20;88.00;;;;;;6182941;23;45216;-69
2022/11/27 06:03:43;;;;;;;5.78;2.78;;;17.20;87.30;;;;;;6182412;23;46385;-69
2022/11/27 06:06:13;;;;;;;6.15;2.88;;;17.20;86.30;;;;;;6181749;23;45248;-69
2022/11/27 06:08:40;;;;;;;5.15;2.63;;;17.20;85.60;;;;;;6182712;23;45314;-69
2022/11/27 06:11:08;;;;;;;4.10;2.67;;;17.20;85.00;;;;;;6182188;23;45222;-69
2022/11/27 06:13:35;;;;;;;4.93;2.38;;;17.20;84.70;;;;;;6182782;23;47288;-69
2022/11/27 06:16:06;;;;;;;4.63;2.45;;;17.20;85.90;;;;;;6183098;23;45390;-69
2022/11/27 06:18:33;;;;;;;3.78;2.03;;;17.30;85.30;;;;;;6183390;23;45309;-69
2022/11/27 06:21:05;;;;;;;3.88;2.50;;;17.20;85.20;;;;;;6181865;23;45289;-69
2022/11/27 06:23:32;;;;;;;3.70;2.58;;;17.30;85.70;;;;;;6183310;23;45279;-69
2022/11/27 06:25:58;;;;;;;4.63;2.47;;;17.30;85.50;;;;;;6182552;23;45448;-69
2022/11/27 06:28:25;;;;;;;3.40;2.22;;;17.30;85.90;;;;;;6183639;23;45453;-69
2022/11/27 06:30:52;;;;;;;4.70;2.55;;;17.30;85.80;;;;;;6180701;23;45233;-69
2022/11/27 06:33:19;;;;;;;2.72;2.03;;;17.30;85.70;;;;;;6182916;23;46583;-70
2022/11/27 06:35:46;;;;;;;3.05;2.03;;;17.40;85.50;;;;;;6182980;23;45843;-69
2022/11/27 06:38:15;;;;;;;3.00;2.03;;;17.40;85.50;;;;;;6182596;23;45217;-69
2022/11/27 06:40:41;;;;;;;3.95;2.05;;;17.40;85.80;;;;;;6182667;23;45468;-69
2022/11/27 06:43:08;;;;;;;4.13;2.22;;;17.40;85.30;;;;;;6182902;23;46277;-69
2022/11/27 06:45:35;;;;;;;5.38;2.60;;;17.40;86.00;;;;;;6182970;23;46118;-69
2022/11/27 06:48:02;;;;;;;3.95;2.08;;;17.40;85.00;;;;;;6183574;23;45253;-69
2022/11/27 06:50:28;;;;;;;4.60;1.98;;;17.40;85.20;;;;;;6181954;23;45486;-69
2022/11/27 06:52:55;;;;;;;3.75;2.00;;;17.50;84.90;;;;;;6183395;23;46394;-69
2022/11/27 06:55:23;;;;;;;4.32;2.38;;;17.50;84.90;;;;;;6182556;23;45253;-69
2022/11/27 06:57:50;;;;;;;5.28;2.10;;;17.40;84.20;;;;;;6183498;23;45224;-69
2022/11/27 07:00:18;;;;;;;3.28;2.00;;;17.50;85.00;;;;;;6182375;23;45698;-69
2022/11/27 07:02:45;;;;;;;4.68;2.00;;;17.40;84.10;;;;;;6182465;23;46281;-69
2022/11/27 07:05:12;;;;;;;2.92;1.90;;;17.50;84.40;;;;;;6180515;23;45243;-69
2022/11/27 07:07:38;;;;;;;3.95;2.13;;;17.40;84.20;;;;;;6182772;23;45332;-69
2022/11/27 07:10:07;;;;;;;3.50;1.70;;;17.40;84.50;;;;;;6182056;23;45369;-69
2022/11/27 07:12:35;;;;;;;3.38;2.10;;;17.40;84.90;;;;;;6182227;23;45283;-69
2022/11/27 07:15:02;;;;;;;2.55;1.95;;;17.40;85.00;;;;;;6182960;23;45252;-69
2022/11/27 07:17:29;;;;;;;2.67;1.77;;;17.40;85.40;;;;;;6182768;23;45474;-70
2022/11/27 07:19:56;;;;;;;2.58;2.10;;;17.40;84.90;;;;;;6181716;23;45465;-69
2022/11/27 07:22:22;;;;;;;4.18;2.08;;;17.40;84.90;;;;;;6182864;23;45228;-69
2022/11/27 07:24:49;;;;;;;6.13;2.15;;;17.40;85.40;;;;;;6178392;23;45193;-69
2022/11/27 07:27:16;;;;;;;4.15;1.98;;;17.40;84.90;;;;;;6179567;23;45166;-69
2022/11/27 07:29:44;;;;;;;3.17;1.70;;;17.40;84.60;;;;;;6181120;23;45288;-69
2022/11/27 07:32:11;;;;;;;4.35;2.03;;;17.40;84.30;;;;;;6182051;23;45361;-70
2022/11/27 07:34:37;;;;;;;4.38;1.98;;;17.40;84.70;;;;;;6182924;23;45717;-69
2022/11/27 07:37:04;;;;;;;3.90;1.80;;;17.40;85.00;;;;;;6182020;23;45394;-69
2022/11/27 07:39:31;;;;;;;2.75;1.77;;;17.40;84.50;;;;;;6183120;23;45220;-69
2022/11/27 07:41:58;;;;;;;2.85;1.92;;;17.40;84.40;;;;;;6179679;23;47042;-69
2022/11/27 07:44:25;;;;;;;3.00;1.83;;;17.40;84.20;;;;;;6183257;23;45418;-69
2022/11/27 07:46:53;;;;;;;2.20;1.70;;;17.40;82.80;;;;;;6183077;23;45257;-69
2022/11/27 07:49:20;;;;;;;3.92;1.52;;;17.50;82.70;;;;;;6182136;23;45229;-69
2022/11/27 07:51:46;;;;;;;3.53;1.80;;;17.40;82.50;;;;;;6181752;23;45283;-69
2022/11/27 07:54:13;;;;;;;1.85;1.40;;;17.50;83.30;;;;;;6182128;23;45321;-68
2022/11/27 07:56:40;;;;;;;2.95;1.70;;;17.50;83.30;;;;;;6182126;23;45390;-69
2022/11/27 07:59:07;;;;;;;3.47;1.65;;;17.50;82.40;;;;;;6182255;23;45173;-69
2022/11/27 08:01:34;;;;;;;4.22;1.58;;;17.40;82.90;;;;;;6180699;23;45370;-69
2022/11/27 08:04:02;;;;;;;4.07;1.60;;;17.40;83.80;;;;;;6181377;23;45229;-69
2022/11/27 08:06:29;;;;;;;3.83;1.75;;;17.40;83.20;;;;;;6180760;23;45377;-69
2022/11/27 08:08:56;;;;;;;2.05;1.23;;;17.40;84.60;;;;;;6182265;23;45280;-69
2022/11/27 08:11:24;;;;;;;2.67;1.60;;;17.40;83.70;;;;;;6181234;23;46792;-68
2022/11/27 08:13:56;;;;;;;3.80;1.70;;;17.40;83.00;;;;;;6182177;23;45284;-69
2022/11/27 08:16:23;;;;;;;3.08;1.65;;;17.30;83.60;;;;;;6182541;23;45153;-69
2022/11/27 08:18:50;;;;;;;2.78;1.50;;;17.30;83.80;;;;;;6182283;23;45209;-69
2022/11/27 08:21:18;;;;;;;2.42;1.40;;;17.30;83.60;;;;;;6181338;23;45329;-69
2022/11/27 08:23:45;;;;;;;2.63;1.70;;;17.30;83.30;;;;;;6181940;23;45443;-69
2022/11/27 08:26:13;;;;;;;3.50;1.80;;;17.30;82.80;;;;;;6182381;23;45295;-69
2022/11/27 08:28:40;;;;;;;4.53;1.33;;;17.30;82.40;;;;;;6182175;23;45176;-69
2022/11/27 08:31:10;;;;;;;3.67;1.42;;;17.40;82.80;;;;;;6180535;23;48245;-69
2022/11/27 08:33:37;;;;;;;2.65;1.30;;;17.30;83.40;;;;;;6181435;23;45226;-69
2022/11/27 08:36:04;;;;;;;2.17;1.63;;;17.40;84.60;;;;;;6182260;23;45375;-69
2022/11/27 08:38:33;;;;;;;2.45;1.30;;;17.40;84.60;;;;;;6180555;23;45283;-69
2022/11/27 08:41:02;;;;;;;2.03;1.02;;;17.40;84.60;;;;;;6181293;23;45467;-68
2022/11/27 08:43:29;;;;;;;9.55;1.80;;;17.40;84.70;;;;;;6182034;23;45283;-67
2022/11/27 08:45:57;;;;;;;10.30;2.25;;;17.40;89.40;;;;;;6182675;23;45356;-68
2022/11/27 08:48:24;;;;;;;8.02;2.38;;;17.50;88.90;;;;;;6182052;23;45349;-69
2022/11/27 08:50:52;;;;;;;11.20;1.60;;;17.50;89.00;;;;;;6181130;23;46320;-70
2022/11/27 08:53:19;;;;;;;2.15;1.30;;;17.50;87.10;;;;;;6181997;23;45224;-70
2022/11/27 08:55:47;;;;;;;3.42;1.35;;;17.50;86.40;;;;;;6181725;23;45347;-70
2022/11/27 08:58:14;;;;;;;2.33;1.75;;;17.50;85.20;;;;;;6181831;23;45428;-70
2022/11/27 09:00:41;;;;;;;2.50;1.23;;;17.50;85.20;;;;;;6180455;23;47153;-69
2022/11/27 09:03:07;;;;;;;2.03;1.20;;;17.50;85.40;;;;;;6182381;23;45255;-70
2022/11/27 09:05:34;;;;;;;2.40;1.40;;;17.50;85.30;;;;;;6180773;23;45353;-71
2022/11/27 09:08:04;;;;;;;3.78;1.60;;;17.50;85.90;;;;;;6181658;23;45363;-68
2022/11/27 09:10:31;;;;;;;3.25;1.50;;;17.50;86.00;;;;;;6180995;23;48664;-70
2022/11/27 09:12:59;;;;;;;5.82;1.50;;;17.60;87.70;;;;;;6181789;23;45821;-70
2022/11/27 09:15:27;;;;;;;5.70;1.65;;;17.50;86.80;;;;;;6182094;23;45292;-71
2022/11/27 09:17:54;;;;;;;4.10;1.70;;;17.60;86.40;;;;;;6181331;23;45265;-70
2022/11/27 09:20:21;;;;;;;4.53;1.55;;;17.50;86.30;;;;;;6181250;23;45423;-70
2022/11/27 09:22:48;;;;;;;3.10;1.30;;;17.50;86.00;;;;;;6181863;23;45401;-71
2022/11/27 09:25:14;;;;;;;2.63;1.25;;;17.50;86.70;;;;;;6182360;23;45358;-70
2022/11/27 09:27:42;;;;;;;3.60;1.55;;;17.50;86.80;;;;;;6182364;23;45368;-71
2022/11/27 09:30:11;;;;;;;1.40;1.00;;;17.50;86.40;;;;;;6180719;23;46445;-70
2022/11/27 09:32:38;;;;;;;6.80;1.85;;;17.50;86.40;;;;;;6181053;23;45358;-69
2022/11/27 09:35:05;;;;;;;3.42;1.20;;;17.60;86.90;;;;;;6181337;23;45166;-70
2022/11/27 09:37:32;;;;;;;3.90;1.20;;;17.50;87.00;;;;;;6180654;23;45325;-70
2022/11/27 09:39:59;;;;;;;2.88;1.60;;;17.60;86.50;;;;;;6181936;23;48355;-70
2022/11/27 09:42:37;;;;;;;2.85;1.45;;;17.60;86.90;;;;;;6180384;23;45328;-70
2022/11/27 09:45:07;;;;;;;2.78;1.40;;;17.60;86.70;;;;;;6180116;23;45397;-71
2022/11/27 09:47:41;;;;;;;3.28;1.40;;;17.60;87.00;;;;;;6182507;23;45388;-70
2022/11/27 09:50:13;;;;;;;2.80;1.38;;;17.60;88.10;;;;;;6180936;23;47244;-71
2022/11/27 09:52:42;;;;;;;2.20;1.40;;;17.60;87.00;;;;;;6182369;23;45244;-70
2022/11/27 09:55:17;;;;;;;3.60;1.60;;;17.60;86.90;;;;;;6181416;23;45249;-70
2022/11/27 09:57:48;;;;;;;3.35;1.63;;;17.60;86.80;;;;;;6182567;23;45500;-70
2022/11/27 10:00:19;;;;;;;2.58;1.30;;;17.70;87.00;;;;;;6180751;23;46318;-70
2022/11/27 10:02:47;;;;;;;3.17;1.45;;;17.70;86.90;;;;;;6182104;23;45790;-70
2022/11/27 10:05:20;;;;;;;2.38;1.40;;;17.70;87.00;;;;;;6180342;23;45373;-70
2022/11/27 10:08:12;;;;;;;1.90;1.40;;;17.70;86.70;;;;;;6182203;23;45479;-70
2022/11/27 10:10:49;;;;;;;3.28;1.35;;;17.70;86.90;;;;;;6180478;23;47944;-71
2022/11/27 10:13:35;;;;;;;4.22;1.55;;;17.70;86.80;;;;;;6181607;23;45607;-70
2022/11/27 10:16:09;;;;;;;1.75;1.08;;;17.70;87.00;;;;;;6182059;23;45308;-70
2022/11/27 10:18:45;;;;;;;3.50;1.50;;;17.70;87.10;;;;;;6181464;23;45265;-70
2022/11/27 10:21:18;;;;;;;3.53;1.20;;;17.70;86.70;;;;;;6181701;23;46506;-70
2022/11/27 10:23:52;;;;;;;3.85;1.52;;;17.70;86.00;;;;;;6182801;23;45356;-70
2022/11/27 10:26:21;;;;;;;2.33;1.48;;;17.70;85.70;;;;;;6183534;23;45357;-70
2022/11/27 10:28:56;;;;;;;3.40;1.40;;;17.70;84.90;;;;;;6182868;23;45467;-69
2022/11/27 10:31:36;;;;;;;3.25;1.42;;;17.70;85.00;;;;;;6182333;23;45329;-70
2022/11/27 10:34:14;;;;;;;2.80;1.30;;;17.70;85.00;;;;;;6183010;23;45288;-71
2022/11/27 10:36:46;;;;;;;2.30;1.55;;;17.70;84.90;;;;;;6183401;23;45366;-71
2022/11/27 10:39:17;;;;;;;2.60;1.60;;;17.70;84.80;;;;;;6183279;23;45213;-70
2022/11/27 10:41:55;;;;;;;2.22;1.17;;;17.70;84.80;;;;;;6181762;23;48170;-70
2022/11/27 10:44:28;;;;;;;2.88;1.60;;;17.70;84.60;;;;;;6183437;23;45280;-70
2022/11/27 10:46:59;;;;;;;1.80;1.48;;;17.80;84.80;;;;;;6183033;23;45221;-70
2022/11/27 10:49:27;;;;;;;2.10;1.30;;;17.70;84.40;;;;;;6183813;23;45238;-70
2022/11/27 10:51:54;;;;;;;1.95;1.30;;;17.70;85.00;;;;;;6181691;23;46316;-70
2022/11/27 10:54:25;;;;;;;2.25;1.13;;;17.70;84.80;;;;;;6183552;23;45159;-70
2022/11/27 10:57:08;;;;;;;2.28;1.30;;;17.70;85.00;;;;;;6182903;23;45326;-70
2022/11/27 10:59:40;;;;;;;3.78;1.35;;;17.80;85.50;;;;;;6183540;23;45329;-70
2022/11/27 11:02:28;;;;;;;2.38;1.20;;;17.70;85.60;;;;;;6182352;23;46292;-70
2022/11/27 11:04:56;;;;;;;2.90;1.40;;;17.70;85.10;;;;;;6181524;23;45355;-70
2022/11/27 11:07:27;;;;;;;3.08;1.40;;;17.70;85.70;;;;;;6183214;23;45190;-70
2022/11/27 11:09:54;;;;;;;1.75;1.30;;;17.70;85.80;;;;;;6182520;23;45293;-70
2022/11/27 11:12:22;;;;;;;1.63;1.13;;;17.70;85.60;;;;;;6182083;23;46169;-70
2022/11/27 11:14:54;;;;;;;2.88;1.60;;;17.70;85.60;;;;;;6182405;23;45928;-71
2022/11/27 11:17:25;;;;;;;2.75;1.42;;;17.70;86.30;;;;;;6183240;23;45293;-70
2022/11/27 11:19:52;;;;;;;2.00;1.40;;;17.70;85.90;;;;;;6182857;23;45544;-71
2022/11/27 11:22:21;;;;;;;3.38;1.17;;;17.70;86.60;;;;;;6182001;23;46391;-70
2022/11/27 11:24:50;;;;;;;1.50;1.20;;;17.60;86.30;;;;;;6182690;23;45560;-70
2022/11/27 11:27:21;;;;;;;1.92;1.20;;;17.70;86.60;;;;;;6182770;23;45259;-70
2022/11/27 11:29:50;;;;;;;2.63;1.40;;;17.60;86.40;;;;;;6183505;23;45528;-70
2022/11/27 11:32:23;;;;;;;3.15;1.65;;;17.60;87.00;;;;;;6181427;23;45425;-70
2022/11/27 11:34:53;;;;;;;2.72;1.73;;;17.60;87.10;;;;;;6182924;23;45227;-69
2022/11/27 11:37:27;;;;;;;2.50;1.60;;;17.70;86.60;;;;;;6182541;23;45275;-70
2022/11/27 11:39:57;;;;;;;3.58;1.35;;;17.70;86.90;;;;;;6183462;23;45293;-70
2022/11/27 11:42:26;;;;;;;2.15;1.42;;;17.70;86.30;;;;;;6182245;23;46324;-70
2022/11/27 11:44:55;;;;;;;3.03;1.50;;;17.70;86.30;;;;;;6182409;23;45718;-70
2022/11/27 11:47:25;;;;;;;3.33;1.90;;;17.70;86.30;;;;;;6183131;23;45301;-70
2022/11/27 11:49:53;;;;;;;2.28;1.60;;;17.70;86.10;;;;;;6182709;23;45216;-70
2022/11/27 11:52:37;;;;;;;4.00;1.63;;;17.70;86.10;;;;;;6182184;23;45344;-70
2022/11/27 11:55:14;;;;;;;2.35;1.60;;;17.70;86.00;;;;;;6182378;23;45359;-71
2022/11/27 11:58:13;;;;;;;3.38;1.63;;;17.70;86.20;;;;;;6183263;23;45309;-70
2022/11/27 12:00:45;;;;;;;2.50;1.42;;;17.70;86.10;;;;;;6180770;23;45541;-70
2022/11/27 12:03:30;;;;;;;1.73;1.25;;;17.70;86.10;;;;;;6183013;23;45391;-70
2022/11/27 12:06:20;;;;;;;1.90;1.38;;;17.70;86.30;;;;;;6180950;23;45938;-70
2022/11/27 12:08:58;;;;;;;2.58;1.27;;;17.70;86.50;;;;;;6158070;23;45471;-70
2022/11/27 12:11:34;;;;;;;2.15;1.40;;;17.70;86.60;;;;;;6182309;23;45348;-71
2022/11/27 12:14:13;;;;;;;1.88;1.27;;;17.70;86.80;;;;;;6182871;23;45451;-70
2022/11/27 12:16:50;;;;;;;3.05;1.25;;;17.70;86.80;;;;;;6182860;23;45258;-70
2022/11/27 12:19:40;;;;;;;1.38;1.20;;;17.70;87.10;;;;;;6182594;23;45435;-70
2022/11/27 12:22:20;;;;;;;2.03;1.45;;;17.70;87.00;;;;;;6182174;23;45497;-70
2022/11/27 12:24:55;;;;;;;2.03;1.55;;;17.70;87.00;;;;;;6181985;23;46243;-70
2022/11/27 12:27:33;;;;;;;1.50;1.30;;;17.70;86.90;;;;;;6182728;23;45196;-70
2022/11/27 12:30:12;;;;;;;3.22;1.55;;;17.60;87.20;;;;;;6181567;23;45386;-71
2022/11/27 12:33:03;;;;;;;3.60;1.83;;;17.70;87.30;;;;;;6179261;23;45311;-70
2022/11/27 12:35:34;;;;;;;4.20;1.58;;;17.70;87.30;;;;;;6179724;23;45436;-70
2022/11/27 12:38:15;;;;;;;2.03;1.23;;;17.70;86.80;;;;;;6181253;23;45334;-70
2022/11/27 12:41:11;;;;;;;2.55;1.40;;;17.70;86.10;;;;;;6177993;23;45355;-70
2022/11/27 12:43:41;;;;;;;3.95;1.40;;;17.70;85.90;;;;;;6180796;23;45252;-70
2022/11/27 12:46:14;;;;;;;3.63;1.55;;;17.70;86.30;;;;;;6180223;23;46269;-70
2022/11/27 12:48:46;;;;;;;2.58;1.63;;;17.70;86.30;;;;;;6181532;23;45445;-70
2022/11/27 12:51:19;;;;;;;3.45;1.17;;;17.70;86.20;;;;;;6181493;23;45441;-70
2022/11/27 12:53:50;;;;;;;2.20;1.35;;;17.60;86.20;;;;;;6180572;23;45433;-70
2022/11/27 12:56:24;;;;;;;2.95;1.45;;;17.70;86.30;;;;;;6179695;23;48268;-70
2022/11/27 12:58:54;;;;;;;4.00;1.70;;;17.60;86.20;;;;;;6181946;23;45292;-70
2022/11/27 13:01:27;;;;;;;1.70;1.25;;;17.70;86.00;;;;;;6181736;23;45291;-70